Time;durP1;ratioP1;P1;durP2;ratioP2;P2;SDS_P1;SDS_P2;PMS_P1;PMS_P2;Temp;Humidity;BMP_temperature;BMP_pressure;BME280_temperature;BME280_humidity;BME280_pressure;Samples;Min_cycle;Max_cycle;Signal;HPM_P1;HPM_P2
2023/03/27 00:02:15;;;;;;;1.15;0.85;;;;;;;2.19;100.00;101452.19;4877052;29;20559;-77
2023/03/27 00:04:41;;;;;;;1.38;0.70;;;;;;;2.16;100.00;101453.06;4878613;29;20088;-77
2023/03/27 00:07:08;;;;;;;0.68;0.68;;;;;;;2.14;100.00;101454.81;4894834;29;20056;-76
2023/03/27 00:09:33;;;;;;;1.98;0.70;;;;;;;2.11;100.00;101449.56;4876426;29;20469;-76
2023/03/27 00:12:00;;;;;;;1.45;0.70;;;;;;;2.09;100.00;101457.44;4889605;29;20044;-76
2023/03/27 00:14:25;;;;;;;2.63;1.10;;;;;;;2.07;100.00;101455.69;4893644;29;20059;-77
2023/03/27 00:16:51;;;;;;;2.28;0.80;;;;;;;2.03;100.00;101453.06;4874892;29;20040;-76
2023/03/27 00:19:17;;;;;;;1.60;0.73;;;;;;;2.01;100.00;101459.16;4893572;29;20603;-77
2023/03/27 00:21:43;;;;;;;1.23;0.60;;;;;;;2.00;100.00;101460.91;4894131;29;20493;-76
2023/03/27 00:24:10;;;;;;;2.25;0.77;;;;;;;1.98;100.00;101465.28;4893238;29;20048;-77
2023/03/27 00:26:39;;;;;;;0.70;0.70;;;;;;;1.97;100.00;101479.19;4875155;29;20515;-76
2023/03/27 00:29:05;;;;;;;0.73;0.68;;;;;;;1.96;100.00;101472.22;4863555;29;20078;-77
2023/03/27 00:31:31;;;;;;;2.47;0.75;;;;;;;1.94;100.00;101488.75;4894391;29;20469;-76
2023/03/27 00:33:57;;;;;;;3.40;0.88;;;;;;;1.91;100.00;101489.66;4892829;29;20049;-77
2023/03/27 00:36:23;;;;;;;1.52;0.90;;;;;;;1.86;100.00;101486.16;4878671;29;20466;-77
2023/03/27 00:38:52;;;;;;;1.65;0.80;;;;;;;1.83;100.00;101488.75;4894046;29;20094;-76
2023/03/27 00:41:21;;;;;;;2.88;0.80;;;;;;;1.79;100.00;101487.00;4894115;29;20059;-77
2023/03/27 00:43:46;;;;;;;1.83;0.80;;;;;;;1.75;100.00;101488.75;4892802;29;20083;-77
2023/03/27 00:46:38;;;;;;;0.93;0.70;;;;;;;1.71;100.00;101492.22;4877111;29;20052;-77
2023/03/27 00:49:05;;;;;;;5.90;1.10;;;;;;;1.67;100.00;101493.06;4890310;29;20066;-76
2023/03/27 00:51:31;;;;;;;0.70;0.70;;;;;;;1.63;100.00;101497.41;4860156;29;20115;-77
2023/03/27 00:53:57;;;;;;;3.92;1.08;;;;;;;1.61;100.00;101506.97;4889494;29;20092;-77
2023/03/27 00:56:23;;;;;;;4.38;1.00;;;;;;;1.58;100.00;101507.84;4876131;29;20190;-77
2023/03/27 00:58:51;;;;;;;2.72;0.77;;;;;;;1.58;100.00;101507.00;4874826;29;21584;-77
2023/03/27 01:01:18;;;;;;;4.50;0.95;;;;;;;1.53;100.00;101511.31;4873517;29;20142;-77
2023/03/27 01:03:45;;;;;;;1.25;0.80;;;;;;;1.52;100.00;101517.41;4876225;29;20044;-76
2023/03/27 01:06:13;;;;;;;3.42;0.98;;;;;;;1.49;100.00;101516.50;4879188;29;20055;-77
2023/03/27 01:08:40;;;;;;;1.50;0.63;;;;;;;1.48;100.00;101513.91;4876546;29;20036;-77
2023/03/27 01:11:25;;;;;;;1.15;0.80;;;;;;;1.47;100.00;101518.25;4874697;29;20120;-77
2023/03/27 01:14:06;;;;;;;3.45;0.80;;;;;;;1.47;100.00;101525.22;4892873;29;20129;-76
2023/03/27 01:16:58;;;;;;;1.60;0.90;;;;;;;1.41;100.00;101526.06;4893013;29;20102;-76
2023/03/27 01:19:49;;;;;;;1.63;0.95;;;;;;;1.37;100.00;101519.09;4860212;29;20040;-76
2023/03/27 01:22:31;;;;;;;1.15;0.90;;;;;;;1.32;100.00;101518.22;4874483;29;20095;-76
2023/03/27 01:25:34;;;;;;;4.82;1.13;;;;;;;1.27;100.00;101528.63;4890310;29;20495;-75
2023/03/27 01:28:01;;;;;;;2.35;1.23;;;;;;;1.25;100.00;101524.28;4875162;29;20048;-77
2023/03/27 01:30:30;;;;;;;1.85;0.82;;;;;;;1.21;100.00;101526.84;4892838;29;20048;-77
2023/03/27 01:33:20;;;;;;;2.83;0.98;;;;;;;1.22;100.00;101519.91;4890892;29;20044;-76
2023/03/27 01:36:07;;;;;;;2.25;1.08;;;;;;;1.21;100.00;101528.59;4869853;29;20083;-76
2023/03/27 01:38:59;;;;;;;1.42;0.75;;;;;;;1.24;100.00;101522.53;4889707;29;20400;-77
2023/03/27 01:42:14;;;;;;;3.75;1.00;;;;;;;1.28;100.00;101525.16;4874341;29;20051;-77
2023/03/27 01:45:07;;;;;;;1.85;0.80;;;;;;;1.33;100.00;101544.31;4858184;29;20424;-77
2023/03/27 01:48:06;;;;;;;5.25;0.75;;;;;;;1.38;100.00;101562.59;4874328;29;20817;-77
2023/03/27 01:50:47;;;;;;;0.93;0.70;;;;;;;1.40;100.00;101560.84;4888757;29;20044;-76
2023/03/27 01:53:20;;;;;;;1.15;1.00;;;;;;;1.34;100.00;101540.84;4878156;29;20047;-77
2023/03/27 01:55:51;;;;;;;1.88;0.70;;;;;;;1.30;100.00;101540.81;4891347;29;20055;-77
2023/03/27 01:58:20;;;;;;;2.67;0.80;;;;;;;1.25;100.00;101540.78;4862374;29;20578;-77
2023/03/27 02:00:51;;;;;;;4.60;0.80;;;;;;;1.25;100.00;101539.91;4891148;29;20075;-77
2023/03/27 02:03:23;;;;;;;2.63;0.90;;;;;;;1.24;100.00;101544.25;4876038;29;20544;-76
2023/03/27 02:05:55;;;;;;;3.13;1.20;;;;;;;1.24;100.00;101543.41;4877490;29;20037;-77
2023/03/27 02:08:34;;;;;;;3.30;0.90;;;;;;;1.22;100.00;101546.84;4872939;29;20492;-77
2023/03/27 02:10:59;;;;;;;2.65;0.80;;;;;;;1.23;100.00;101547.72;4874699;29;20044;-77
2023/03/27 02:13:33;;;;;;;1.88;1.05;;;;;;;1.20;100.00;101548.59;4876831;29;20048;-77
2023/03/27 02:16:00;;;;;;;1.95;1.08;;;;;;;1.18;100.00;101547.72;4876263;29;20290;-77
2023/03/27 02:18:34;;;;;;;4.90;1.27;;;;;;;1.17;100.00;101547.69;4875368;29;20147;-77
2023/03/27 02:21:01;;;;;;;1.55;1.45;;;;;;;1.13;100.00;101552.03;4891773;29;20047;-77
2023/03/27 02:23:26;;;;;;;3.38;1.00;;;;;;;1.12;100.00;101550.28;4889469;29;20101;-76
2023/03/27 02:25:53;;;;;;;1.70;1.20;;;;;;;1.12;100.00;101560.72;4891821;29;20072;-76
2023/03/27 02:28:50;;;;;;;3.53;1.00;;;;;;;1.11;100.00;101559.00;4875411;29;20048;-77
2023/03/27 02:31:47;;;;;;;3.38;0.90;;;;;;;1.11;100.00;101563.31;4890855;29;20550;-76
2023/03/27 02:34:51;;;;;;;2.40;0.90;;;;;;;1.09;100.00;101565.91;4874951;29;20516;-77
2023/03/27 02:37:27;;;;;;;3.40;0.90;;;;;;;1.09;100.00;101573.72;4892790;29;20048;-77
2023/03/27 02:40:04;;;;;;;3.85;0.90;;;;;;;1.10;100.00;101598.09;4891896;29;20052;-76
2023/03/27 02:42:39;;;;;;;4.75;1.05;;;;;;;1.12;100.00;101607.69;4885111;29;20051;-76
2023/03/27 02:45:15;;;;;;;3.30;0.98;;;;;;;1.20;100.00;101624.25;4890599;29;20040;-76
2023/03/27 02:48:16;;;;;;;2.95;1.20;;;;;;;1.11;100.00;101616.38;4878424;29;20057;-76
2023/03/27 02:51:04;;;;;;;1.65;1.10;;;;;;;0.93;100.00;101617.97;4874691;29;20071;-76
2023/03/27 02:53:35;;;;;;;4.18;1.10;;;;;;;0.83;100.00;101603.16;4879791;29;20051;-75
2023/03/27 02:56:02;;;;;;;3.80;1.30;;;;;;;0.78;100.00;101612.66;4879372;29;20064;-75
2023/03/27 02:58:56;;;;;;;1.95;1.08;;;;;;;0.74;100.00;101608.28;4895174;29;20512;-76
2023/03/27 03:01:24;;;;;;;3.67;1.20;;;;;;;0.72;100.00;101597.84;4890740;29;20103;-76
2023/03/27 03:03:58;;;;;;;1.33;1.00;;;;;;;0.72;100.00;101602.19;4874518;29;20107;-76
2023/03/27 03:06:28;;;;;;;0.95;0.93;;;;;;;0.72;100.00;101605.69;4866005;29;20044;-76
2023/03/27 03:09:00;;;;;;;2.30;0.90;;;;;;;0.72;100.00;101607.41;4889648;29;20671;-76
2023/03/27 03:11:27;;;;;;;2.17;0.85;;;;;;;0.71;100.00;101603.03;4877484;29;20048;-76
2023/03/27 03:13:53;;;;;;;2.22;0.90;;;;;;;0.74;100.00;101616.09;4877371;29;20543;-76
2023/03/27 03:16:18;;;;;;;3.42;1.05;;;;;;;0.78;100.00;101599.63;4890517;29;20046;-77
2023/03/27 03:18:44;;;;;;;1.70;0.90;;;;;;;0.80;100.00;101595.28;4892724;29;20048;-76
2023/03/27 03:21:09;;;;;;;2.95;1.15;;;;;;;0.82;100.00;101593.59;4891532;29;20135;-76
2023/03/27 03:23:34;;;;;;;1.45;1.00;;;;;;;0.85;100.00;101598.81;4891930;29;20121;-76
2023/03/27 03:26:01;;;;;;;1.90;1.05;;;;;;;0.91;100.00;101587.53;4888626;29;20053;-76
2023/03/27 03:28:27;;;;;;;5.65;0.90;;;;;;;0.96;100.00;101601.50;4892269;29;20048;-76
2023/03/27 03:30:53;;;;;;;1.52;0.90;;;;;;;1.03;100.00;101605.88;4875862;29;21621;-76
2023/03/27 03:33:19;;;;;;;2.22;1.02;;;;;;;1.06;100.00;101610.25;4874811;29;20768;-76
2023/03/27 03:35:47;;;;;;;3.38;1.23;;;;;;;1.07;100.00;101609.38;4893569;29;20060;-76
2023/03/27 03:38:14;;;;;;;1.38;0.98;;;;;;;1.10;100.00;101614.63;4861866;29;20067;-77
2023/03/27 03:40:40;;;;;;;5.10;1.65;;;;;;;1.13;100.00;101622.47;4877401;29;20808;-76
2023/03/27 03:43:06;;;;;;;2.55;1.17;;;;;;;1.16;100.00;101619.00;4859445;29;20060;-77
2023/03/27 03:45:31;;;;;;;3.28;1.38;;;;;;;1.18;100.00;101620.75;4883784;29;20868;-76
2023/03/27 03:47:57;;;;;;;2.35;1.25;;;;;;;1.21;100.00;101617.31;4843685;29;20052;-76
2023/03/27 03:50:22;;;;;;;3.58;1.15;;;;;;;1.20;100.00;101621.63;4861321;29;20840;-76
2023/03/27 03:52:48;;;;;;;2.03;1.10;;;;;;;1.19;100.00;101619.91;4877132;29;20067;-77
2023/03/27 03:55:14;;;;;;;1.98;1.15;;;;;;;1.17;100.00;101624.25;4876527;29;20055;-77
2023/03/27 03:57:45;;;;;;;2.00;1.23;;;;;;;1.15;100.00;101625.94;4887259;29;20048;-77
2023/03/27 04:00:11;;;;;;;2.15;1.30;;;;;;;1.12;100.00;101628.53;4860586;29;20264;-77
2023/03/27 04:02:39;;;;;;;4.50;1.20;;;;;;;1.08;100.00;101625.03;4896597;29;20063;-77
2023/03/27 04:05:06;;;;;;;3.50;1.23;;;;;;;1.08;100.00;101630.25;4895020;29;20056;-77
2023/03/27 04:07:31;;;;;;;2.30;1.23;;;;;;;1.07;100.00;101635.47;4891094;29;20048;-77
2023/03/27 04:10:00;;;;;;;3.20;1.30;;;;;;;1.06;100.00;101645.03;4879582;29;20667;-77
2023/03/27 04:12:26;;;;;;;3.65;1.25;;;;;;;1.08;100.00;101643.31;4891167;29;20048;-77
2023/03/27 04:14:52;;;;;;;3.13;1.15;;;;;;;1.09;100.00;101649.38;4891359;29;20414;-77
2023/03/27 04:17:18;;;;;;;2.78;1.23;;;;;;;1.11;100.00;101652.88;4893378;29;21666;-77
2023/03/27 04:19:46;;;;;;;6.60;1.30;;;;;;;1.11;100.00;101658.09;4878038;29;20185;-77
2023/03/27 04:22:12;;;;;;;3.42;1.15;;;;;;;1.10;100.00;101661.59;4858835;29;20052;-77
2023/03/27 04:24:38;;;;;;;2.38;1.52;;;;;;;1.13;100.00;101671.16;4892251;29;20059;-77
2023/03/27 04:27:04;;;;;;;1.73;1.08;;;;;;;1.10;100.00;101666.81;4894369;29;20076;-77
2023/03/27 04:29:30;;;;;;;2.65;1.10;;;;;;;1.12;100.00;101677.22;4893733;29;20415;-77
2023/03/27 04:31:57;;;;;;;3.10;1.20;;;;;;;1.11;100.00;101681.59;4894993;29;20076;-77
2023/03/27 04:34:23;;;;;;;2.05;1.08;;;;;;;1.11;100.00;101689.41;4892879;29;20147;-77
2023/03/27 04:36:49;;;;;;;1.30;1.00;;;;;;;1.12;100.00;101698.97;4877553;29;20044;-77
2023/03/27 04:39:16;;;;;;;4.05;1.17;;;;;;;1.12;100.00;101704.19;4893452;29;20052;-77
2023/03/27 04:41:48;;;;;;;2.83;0.93;;;;;;;1.13;100.00;101700.72;4859216;29;20147;-77
2023/03/27 04:44:17;;;;;;;2.03;0.80;;;;;;;1.13;100.00;101705.09;4862491;29;21739;-77
2023/03/27 04:46:49;;;;;;;4.05;1.25;;;;;;;1.15;100.00;101706.81;4894559;29;20052;-77
2023/03/27 04:49:17;;;;;;;3.65;1.35;;;;;;;1.16;100.00;101692.94;4895115;29;20060;-77
2023/03/27 04:51:44;;;;;;;2.40;0.90;;;;;;;1.20;100.00;101704.25;4891694;29;20078;-77
2023/03/27 04:54:09;;;;;;;2.08;0.90;;;;;;;1.22;100.00;101703.38;4876815;29;20472;-77
2023/03/27 04:56:35;;;;;;;1.33;0.77;;;;;;;1.25;100.00;101712.13;4875645;29;20136;-77
2023/03/27 04:59:02;;;;;;;4.97;1.52;;;;;;;1.24;100.00;101713.00;4885098;29;20051;-77
2023/03/27 05:01:28;;;;;;;2.83;1.02;;;;;;;1.22;100.00;101712.97;4876784;29;20085;-77
2023/03/27 05:03:55;;;;;;;4.30;0.90;;;;;;;1.20;100.00;101715.56;4893409;29;20049;-77
2023/03/27 05:06:21;;;;;;;2.78;0.82;;;;;;;1.18;100.00;101708.56;4876653;29;21663;-77
2023/03/27 05:08:46;;;;;;;1.27;0.90;;;;;;;1.15;100.00;101719.84;4874382;29;20052;-77
2023/03/27 05:11:12;;;;;;;1.98;0.75;;;;;;;1.11;100.00;101715.50;4893498;29;20075;-77
2023/03/27 05:13:37;;;;;;;1.10;0.80;;;;;;;1.07;100.00;101719.81;4877646;29;20048;-77
2023/03/27 05:16:03;;;;;;;2.67;0.93;;;;;;;1.04;100.00;101721.53;4891389;29;20523;-77
2023/03/27 05:18:29;;;;;;;0.98;0.77;;;;;;;1.01;100.00;101722.38;4849669;29;20672;-77
2023/03/27 05:20:58;;;;;;;2.95;0.93;;;;;;;0.97;100.00;101727.56;4872176;29;20055;-77
2023/03/27 05:23:24;;;;;;;1.50;0.85;;;;;;;0.93;100.00;101730.13;4892448;29;20403;-77
2023/03/27 05:25:50;;;;;;;2.20;1.02;;;;;;;0.88;100.00;101737.00;4874575;29;20074;-77
2023/03/27 05:28:16;;;;;;;3.70;0.80;;;;;;;0.85;100.00;101739.59;4878410;29;20615;-77
2023/03/27 05:30:41;;;;;;;4.00;1.20;;;;;;;0.82;100.00;101736.97;4890541;29;20048;-76
2023/03/27 05:33:07;;;;;;;2.03;0.98;;;;;;;0.79;100.00;101739.53;4892816;29;20167;-77
2023/03/27 05:35:33;;;;;;;2.25;0.93;;;;;;;0.76;100.00;101744.75;4894151;29;20131;-77
2023/03/27 05:37:59;;;;;;;3.45;1.23;;;;;;;0.73;100.00;101745.59;4889232;29;20480;-76
2023/03/27 05:40:27;;;;;;;2.40;1.02;;;;;;;0.71;100.00;101747.28;4877884;29;20047;-76
2023/03/27 05:42:54;;;;;;;3.65;0.85;;;;;;;0.72;100.00;101749.06;4890527;29;20056;-76
2023/03/27 05:45:20;;;;;;;3.30;0.95;;;;;;;0.76;100.00;101760.38;4875499;29;20069;-76
2023/03/27 05:47:51;;;;;;;1.45;1.00;;;;;;;0.80;100.00;101756.94;4874085;29;20051;-77
2023/03/27 05:50:18;;;;;;;1.02;0.77;;;;;;;0.85;100.00;101755.25;4875729;29;20794;-77
2023/03/27 05:52:44;;;;;;;1.77;1.00;;;;;;;0.91;100.00;101765.75;4875733;29;20736;-77
2023/03/27 05:55:10;;;;;;;3.45;1.00;;;;;;;0.94;100.00;101762.28;4892288;29;20057;-77
2023/03/27 05:57:37;;;;;;;2.28;0.85;;;;;;;0.96;100.00;101763.16;4890104;29;20087;-77
2023/03/27 06:00:09;;;;;;;1.33;0.70;;;;;;;0.98;100.00;101769.25;4889620;29;20063;-77
2023/03/27 06:02:34;;;;;;;0.82;0.70;;;;;;;1.01;100.00;101784.97;4892751;29;20047;-77
2023/03/27 06:05:00;;;;;;;0.68;0.68;;;;;;;1.01;100.00;101790.19;4890217;29;20518;-77
2023/03/27 06:07:27;;;;;;;0.70;0.70;;;;;;;1.01;100.00;101784.97;4888279;29;20442;-77
2023/03/27 06:09:52;;;;;;;2.20;0.80;;;;;;;1.04;100.00;101794.56;4873457;29;20059;-77
2023/03/27 06:12:18;;;;;;;3.00;0.80;;;;;;;1.06;100.00;101790.22;4889637;29;20048;-79
2023/03/27 06:14:44;;;;;;;0.60;0.60;;;;;;;1.10;100.00;101801.56;4891311;29;20461;-77
2023/03/27 06:17:09;;;;;;;1.90;0.95;;;;;;;1.14;100.00;101801.59;4891459;29;20055;-77
2023/03/27 06:19:35;;;;;;;1.20;1.10;;;;;;;1.19;100.00;101801.63;4893052;29;20079;-77
2023/03/27 06:22:00;;;;;;;1.85;0.82;;;;;;;1.22;100.00;101804.28;4891870;29;20048;-76
2023/03/27 06:24:26;;;;;;;2.08;0.80;;;;;;;1.29;100.00;101802.59;4874287;29;20056;-77
2023/03/27 06:26:51;;;;;;;1.60;0.82;;;;;;;1.35;100.00;101810.47;4892614;29;20060;-77
2023/03/27 06:29:17;;;;;;;3.92;0.90;;;;;;;1.40;100.00;101814.00;4892689;29;20056;-77
2023/03/27 06:31:43;;;;;;;1.45;0.77;;;;;;;1.46;100.00;101821.88;4892707;29;20059;-77
2023/03/27 06:34:09;;;;;;;2.42;0.75;;;;;;;1.54;100.00;101818.44;4890405;29;20077;-77
2023/03/27 06:36:35;;;;;;;2.65;0.95;;;;;;;1.60;100.00;101818.50;4888033;29;20048;-78
2023/03/27 06:39:03;;;;;;;3.38;1.00;;;;;;;1.65;100.00;101822.03;4874930;29;20045;-77
2023/03/27 06:41:29;;;;;;;2.05;1.00;;;;;;;1.71;100.00;101823.81;4889953;29;20649;-78
2023/03/27 06:43:54;;;;;;;4.35;1.77;;;;;;;1.78;100.00;101825.59;4889274;29;20488;-77
2023/03/27 06:46:20;;;;;;;1.10;0.70;;;;;;;1.87;100.00;101830.00;4890016;29;20056;-77
2023/03/27 06:48:49;;;;;;;7.13;1.08;;;;;;;1.92;100.00;101830.94;4888827;29;21707;-78
2023/03/27 06:51:14;;;;;;;4.38;0.98;;;;;;;1.98;100.00;101832.69;4867206;29;20103;-77
2023/03/27 06:53:40;;;;;;;4.07;1.00;;;;;;;2.04;100.00;101832.72;4867557;29;20048;-77
2023/03/27 06:56:06;;;;;;;4.10;1.02;;;;;;;2.08;100.00;101841.47;4890383;29;20086;-79
2023/03/27 06:58:32;;;;;;;1.38;0.70;;;;;;;2.16;100.00;101844.97;4888612;29;20071;-77
2023/03/27 07:00:57;;;;;;;1.75;0.80;;;;;;;2.24;100.00;101838.06;4891065;29;20509;-77
2023/03/27 07:03:24;;;;;;;3.25;0.80;;;;;;;2.33;100.00;101844.22;4877146;29;20052;-77
2023/03/27 07:05:49;;;;;;;4.13;0.88;;;;;;;2.44;100.00;101851.25;4890776;29;20064;-76
2023/03/27 07:08:17;;;;;;;1.60;0.70;;;;;;;2.57;100.00;101860.00;4890293;29;20048;-76
2023/03/27 07:10:43;;;;;;;0.73;0.70;;;;;;;2.66;100.00;101866.16;4895739;29;20493;-77
2023/03/27 07:13:09;;;;;;;0.65;0.60;;;;;;;2.71;100.00;101883.59;4894103;29;20424;-77
2023/03/27 07:15:35;;;;;;;3.33;0.80;;;;;;;2.67;100.00;101873.13;4892176;29;20048;-77
2023/03/27 07:18:04;;;;;;;2.00;0.80;;;;;;;2.58;100.00;101874.81;4878191;29;20063;-77
2023/03/27 07:20:30;;;;;;;2.28;0.70;;;;;;;2.51;100.00;101870.44;4893746;29;20139;-77
2023/03/27 07:22:57;;;;;;;2.08;0.90;;;;;;;2.46;100.00;101874.78;4892894;29;20063;-77
2023/03/27 07:25:27;;;;;;;2.75;1.55;;;;;;;2.47;100.00;101881.75;4878973;29;20104;-76
2023/03/27 07:27:58;;;;;;;3.30;0.90;;;;;;;2.45;100.00;101883.47;4872041;29;20516;-77
2023/03/27 07:30:23;;;;;;;2.47;0.70;;;;;;;2.45;100.00;101883.47;4890027;29;20578;-77
2023/03/27 07:32:50;;;;;;;3.05;0.90;;;;;;;2.48;100.00;101880.88;4876204;29;20048;-76
2023/03/27 07:35:15;;;;;;;2.97;1.05;;;;;;;2.52;100.00;101890.50;4891379;29;20489;-77
2023/03/27 07:37:41;;;;;;;2.63;0.73;;;;;;;2.57;100.00;101880.91;4886854;29;20068;-76
2023/03/27 07:40:07;;;;;;;2.15;0.90;;;;;;;2.66;100.00;101876.63;4894017;29;20047;-74
2023/03/27 07:42:33;;;;;;;1.25;1.15;;;;;;;2.74;100.00;101876.63;4892728;29;20888;-76
2023/03/27 07:45:02;;;;;;;1.92;0.85;;;;;;;2.84;100.00;101886.28;4893648;29;20066;-76
2023/03/27 07:47:28;;;;;;;1.23;0.70;;;;;;;2.92;100.00;101883.66;4896715;29;20055;-76
2023/03/27 07:49:54;;;;;;;3.45;1.13;;;;;;;3.01;100.00;101899.41;4893214;29;20052;-75
2023/03/27 07:52:19;;;;;;;3.10;0.65;;;;;;;3.08;100.00;101895.94;4891972;29;20201;-75
2023/03/27 07:54:46;;;;;;;2.53;0.80;;;;;;;3.11;100.00;101890.69;4862667;29;20147;-75
2023/03/27 07:57:14;;;;;;;2.33;0.70;;;;;;;3.18;100.00;101895.94;4889115;29;20056;-75
2023/03/27 07:59:39;;;;;;;3.42;1.05;;;;;;;3.20;100.00;101897.72;4895033;29;20182;-75
2023/03/27 08:02:05;;;;;;;4.03;0.70;;;;;;;3.29;100.00;101895.97;4881954;29;20062;-76
2023/03/27 08:04:30;;;;;;;3.63;1.20;;;;;;;3.44;100.00;101893.41;4858205;29;20048;-75
2023/03/27 08:06:56;;;;;;;3.80;0.90;;;;;;;3.59;100.00;101902.13;4891035;29;20067;-79
2023/03/27 08:09:21;;;;;;;3.40;1.15;;;;;;;3.64;100.00;101896.03;4885483;29;20060;-74
2023/03/27 08:11:49;;;;;;;4.03;0.80;;;;;;;3.63;100.00;101896.91;4891891;29;20131;-74
2023/03/27 08:14:15;;;;;;;1.17;0.60;;;;;;;3.60;100.00;101902.13;4869750;29;20057;-75
2023/03/27 08:16:41;;;;;;;3.22;1.20;;;;;;;3.57;100.00;101916.94;4875244;29;20174;-74
2023/03/27 08:19:08;;;;;;;1.58;0.93;;;;;;;3.55;100.00;101948.41;4888540;29;20404;-75
2023/03/27 08:21:33;;;;;;;1.45;0.80;;;;;;;3.40;100.00;101942.22;4874659;29;20232;-74
2023/03/27 08:24:00;;;;;;;3.00;0.85;;;;;;;3.10;100.00;101951.75;4894001;29;20048;-75
2023/03/27 08:26:26;;;;;;;0.93;0.88;;;;;;;2.77;100.00;101945.50;4889344;29;20443;-75
2023/03/27 08:28:53;;;;;;;1.45;0.82;;;;;;;2.51;100.00;101948.00;4889048;29;20048;-75
2023/03/27 08:31:18;;;;;;;1.20;0.63;;;;;;;2.29;100.00;101938.28;4871195;29;20055;-74
2023/03/27 08:33:44;;;;;;;1.67;0.68;;;;;;;2.14;100.00;101943.41;4865221;29;20111;-75
2023/03/27 08:36:10;;;;;;;1.40;0.60;;;;;;;2.06;100.00;101943.34;4890214;29;20100;-75
2023/03/27 08:38:38;;;;;;;1.20;0.70;;;;;;;2.05;100.00;101943.34;4884507;29;20711;-75
2023/03/27 08:41:04;;;;;;;0.88;0.60;;;;;;;2.10;100.00;101945.13;4894125;29;20653;-75
2023/03/27 08:43:43;;;;;;;3.50;0.77;;;;;;;2.15;100.00;101947.75;4890860;29;20062;-74
2023/03/27 08:46:27;;;;;;;0.75;0.75;;;;;;;2.25;100.00;101948.69;4875687;29;20391;-74
2023/03/27 08:48:52;;;;;;;2.78;0.80;;;;;;;2.39;100.00;101951.44;4887611;29;20052;-75
2023/03/27 08:51:26;;;;;;;2.60;0.82;;;;;;;2.56;100.00;101959.38;4886683;29;20108;-76
2023/03/27 08:54:10;;;;;;;1.10;0.70;;;;;;;2.73;100.00;101962.09;4893325;29;20306;-75
2023/03/27 08:56:36;;;;;;;2.13;0.80;;;;;;;2.90;100.00;101966.50;4889161;29;20048;-75
2023/03/27 08:59:01;;;;;;;2.67;0.75;;;;;;;3.05;100.00;101963.94;4891533;29;20059;-75
2023/03/27 09:01:45;;;;;;;0.98;0.75;;;;;;;3.17;100.00;101962.25;4857273;29;20060;-75
2023/03/27 09:04:45;;;;;;;2.20;0.95;;;;;;;3.38;100.00;101966.69;4873785;29;20056;-75
2023/03/27 09:07:55;;;;;;;5.55;0.85;;;;;;;3.67;100.00;101978.97;4873791;29;20192;-75
2023/03/27 09:10:47;;;;;;;2.58;1.05;;;;;;;3.81;100.00;101986.81;4850203;29;20041;-76
2023/03/27 09:13:30;;;;;;;6.22;1.02;;;;;;;3.93;100.00;101978.97;4868002;29;20045;-75
2023/03/27 09:16:01;;;;;;;4.10;1.05;;;;;;;4.13;100.00;101985.97;4872892;29;20055;-76
2023/03/27 09:18:28;;;;;;;3.47;0.90;;;;;;;4.17;100.00;102000.84;4869396;29;20129;-74
2023/03/27 09:21:03;;;;;;;1.20;0.75;;;;;;;4.12;100.00;102001.69;4873076;29;20259;-75
2023/03/27 09:23:41;;;;;;;0.73;0.60;;;;;;;3.98;100.00;102007.81;4856486;29;20721;-74
2023/03/27 09:26:13;;;;;;;0.70;0.70;;;;;;;3.92;100.00;102011.31;4856198;29;20113;-75
2023/03/27 09:28:50;;;;;;;1.88;0.82;;;;;;;3.98;100.00;102002.56;4855860;29;20062;-75
2023/03/27 09:31:33;;;;;;;1.20;0.70;;;;;;;4.07;100.00;102004.31;4869966;29;20476;-74
2023/03/27 09:34:05;;;;;;;1.83;0.70;;;;;;;4.09;100.00;102028.81;4866305;29;20394;-74
2023/03/27 09:36:34;;;;;;;3.38;0.60;;;;;;;4.00;100.00;102019.19;4866237;29;20040;-74
2023/03/27 09:39:06;;;;;;;0.70;0.70;;;;;;;3.88;100.00;102013.94;4869581;29;20319;-74
2023/03/27 09:41:42;;;;;;;1.07;0.97;;;;;;;3.82;100.00;102025.28;4866955;29;20036;-75
2023/03/27 09:44:19;;;;;;;1.40;0.55;;;;;;;3.86;100.00;102018.31;4872342;29;20059;-74
2023/03/27 09:46:46;;;;;;;0.80;0.70;;;;;;;3.92;100.00;102026.16;4868351;29;20052;-75
2023/03/27 09:49:17;;;;;;;2.15;0.77;;;;;;;3.99;100.00;102016.56;4872127;29;20057;-75
2023/03/27 09:51:53;;;;;;;2.85;0.70;;;;;;;4.02;100.00;102021.78;4858058;29;20468;-74
2023/03/27 09:54:21;;;;;;;1.65;0.80;;;;;;;4.05;100.00;102021.81;4871529;29;20179;-74
2023/03/27 09:56:47;;;;;;;2.10;0.70;;;;;;;4.10;100.00;102020.06;4858117;29;20103;-74
2023/03/27 09:59:36;;;;;;;2.70;0.90;;;;;;;4.18;100.00;102017.44;4866612;29;20052;-74
2023/03/27 10:02:16;;;;;;;3.92;0.90;;;;;;;4.27;100.00;102022.69;4849697;29;20056;-74
2023/03/27 10:05:00;;;;;;;1.73;0.77;;;;;;;4.34;100.00;102026.16;4870360;29;20488;-74
2023/03/27 10:07:26;;;;;;;3.42;0.75;;;;;;;4.41;100.00;102025.28;4871076;29;20052;-74
2023/03/27 10:10:07;;;;;;;1.40;0.63;;;;;;;4.48;100.00;102031.41;4874650;29;20617;-74
2023/03/27 10:12:35;;;;;;;1.95;0.57;;;;;;;4.51;100.00;102025.31;4873136;29;20059;-75
2023/03/27 10:15:03;;;;;;;0.73;0.70;;;;;;;4.57;100.00;102038.41;4860647;29;20051;-74
2023/03/27 10:17:38;;;;;;;2.03;0.60;;;;;;;4.60;100.00;102033.16;4872194;29;20044;-73
2023/03/27 10:20:11;;;;;;;0.90;0.70;;;;;;;4.68;100.00;102028.75;4883456;29;20736;-74
2023/03/27 10:22:40;;;;;;;4.53;0.63;;;;;;;4.73;100.00;102032.25;4888552;29;20559;-74
2023/03/27 10:25:15;;;;;;;1.88;0.60;;;;;;;4.72;97.54;102035.75;4868749;29;20048;-73
2023/03/27 10:27:42;;;;;;;3.83;0.95;;;;;;;4.76;98.34;102024.38;4872809;29;20044;-73
2023/03/27 10:30:28;;;;;;;0.60;0.50;;;;;;;4.93;97.18;102031.34;4875850;29;20074;-73
2023/03/27 10:32:53;;;;;;;2.42;1.00;;;;;;;5.05;98.43;102025.16;4870141;29;20040;-73
2023/03/27 10:35:22;;;;;;;3.63;0.82;;;;;;;5.11;100.00;102037.38;4887476;29;20224;-73
2023/03/27 10:37:50;;;;;;;1.80;0.50;;;;;;;5.15;98.73;102036.50;4892074;29;20063;-74
2023/03/27 10:40:21;;;;;;;4.30;1.00;;;;;;;5.11;100.00;102042.63;4874268;29;20075;-74
2023/03/27 10:42:47;;;;;;;2.40;0.60;;;;;;;4.93;98.33;102060.22;4890612;29;20040;-71
2023/03/27 10:45:17;;;;;;;6.05;1.05;;;;;;;4.76;99.85;102053.22;4886285;29;20040;-74
2023/03/27 10:47:49;;;;;;;1.08;0.50;;;;;;;4.70;100.00;102047.13;4893675;29;20054;-73
2023/03/27 10:50:37;;;;;;;2.80;0.60;;;;;;;4.70;97.19;102049.75;4893097;29;20060;-73
2023/03/27 10:53:22;;;;;;;3.20;0.77;;;;;;;4.71;93.44;102055.00;4874758;29;20123;-74
2023/03/27 10:56:23;;;;;;;0.73;0.60;;;;;;;4.78;93.38;102055.00;4875283;29;20044;-73
2023/03/27 10:58:59;;;;;;;1.52;0.47;;;;;;;4.87;90.92;102055.84;4887600;29;20060;-74
2023/03/27 11:01:33;;;;;;;2.85;0.80;;;;;;;4.94;89.68;102064.56;4877697;29;20048;-73
2023/03/27 11:04:03;;;;;;;2.80;0.60;;;;;;;5.01;88.99;102061.06;4885185;29;20063;-73
2023/03/27 11:06:36;;;;;;;2.60;0.80;;;;;;;5.07;86.65;102068.03;4872729;29;20711;-73
2023/03/27 11:09:16;;;;;;;1.70;0.70;;;;;;;5.16;89.89;102075.00;4877121;29;20130;-73
2023/03/27 11:12:09;;;;;;;1.33;0.75;;;;;;;5.16;87.59;102073.28;4891660;29;20063;-73
2023/03/27 11:14:43;;;;;;;2.90;0.75;;;;;;;5.22;90.07;102097.78;4872918;29;20649;-73
2023/03/27 11:17:12;;;;;;;2.80;0.70;;;;;;;5.28;90.86;102080.22;4870877;29;20058;-73
2023/03/27 11:19:48;;;;;;;4.28;0.80;;;;;;;5.41;87.62;102077.56;4874305;29;20071;-73
2023/03/27 11:22:38;;;;;;;1.42;0.70;;;;;;;5.54;87.59;102076.63;4860315;29;20625;-73
2023/03/27 11:25:18;;;;;;;4.07;0.88;;;;;;;5.77;87.18;102080.88;4890600;29;20044;-74
2023/03/27 11:27:54;;;;;;;4.15;0.80;;;;;;;5.88;89.48;102101.00;4874900;29;20640;-73
2023/03/27 11:30:30;;;;;;;3.30;0.63;;;;;;;5.83;88.50;102106.28;4878144;29;20075;-73
2023/03/27 11:33:08;;;;;;;5.90;0.75;;;;;;;5.66;89.49;102104.59;4892937;29;20052;-73
2023/03/27 11:35:47;;;;;;;0.80;0.57;;;;;;;5.51;87.84;102102.03;4872356;29;20068;-74
2023/03/27 11:38:25;;;;;;;3.08;0.73;;;;;;;5.46;84.19;102098.56;4867945;29;20056;-73
2023/03/27 11:40:51;;;;;;;3.97;0.80;;;;;;;5.40;86.62;102102.09;4910690;29;20076;-74
2023/03/27 11:43:18;;;;;;;2.80;1.08;;;;;;;5.46;89.25;102095.94;4895247;29;20052;-73
2023/03/27 11:45:56;;;;;;;1.30;0.60;;;;;;;5.54;90.32;102108.16;4888987;29;20158;-73